createdAt,value
2022-10-18T00:01:00.238Z,70.76
2022-10-18T00:03:36.938Z,70.60
2022-10-18T00:06:04.860Z,69.82
2022-10-18T00:08:31.689Z,69.67
2022-10-18T00:10:58.634Z,69.31
2022-10-18T00:13:26.369Z,69.32
2022-10-18T00:15:57.986Z,69.16
2022-10-18T00:18:28.017Z,69.28
2022-10-18T00:20:59.073Z,69.47
2022-10-18T00:23:31.039Z,69.43
2022-10-18T00:26:10.512Z,68.72
2022-10-18T00:28:40.968Z,68.70
2022-10-18T00:31:16.445Z,68.66
2022-10-18T00:33:48.279Z,69.73
2022-10-18T00:36:15.463Z,70.11
2022-10-18T00:38:43.858Z,70.07
2022-10-18T00:41:21.668Z,69.52
2022-10-18T00:44:04.901Z,69.60
2022-10-18T00:46:33.955Z,70.22
2022-10-18T00:49:17.567Z,70.33
2022-10-18T00:51:50.102Z,71.46
2022-10-18T00:54:22.421Z,71.19
2022-10-18T00:56:49.254Z,71.32
2022-10-18T00:59:18.258Z,71.19
2022-10-18T01:01:50.635Z,71.22
2022-10-18T01:04:19.498Z,71.66
2022-10-18T01:07:07.213Z,71.00
2022-10-18T01:09:56.477Z,69.70
2022-10-18T01:12:50.616Z,70.45
2022-10-18T01:15:31.566Z,70.79
2022-10-18T01:18:04.499Z,71.07
2022-10-18T01:20:34.198Z,71.69
2022-10-18T01:23:08.709Z,71.46
2022-10-18T01:26:01.457Z,71.88
2022-10-18T01:28:57.519Z,72.30
2022-10-18T01:31:37.149Z,72.71
2022-10-18T01:34:11.150Z,72.99
2022-10-18T01:36:42.479Z,72.65
2022-10-18T01:39:14.735Z,72.40
2022-10-18T01:41:43.546Z,72.39
2022-10-18T01:44:16.773Z,72.72
2022-10-18T01:46:45.914Z,72.54
2022-10-18T01:49:16.280Z,72.09
2022-10-18T01:51:44.122Z,71.82
2022-10-18T01:54:19.640Z,72.04
2022-10-18T01:57:00.353Z,71.84
2022-10-18T02:00:00.119Z,71.88
2022-10-18T02:02:39.464Z,72.25
2022-10-18T02:05:39.276Z,71.92
2022-10-18T02:08:38.847Z,72.27
2022-10-18T02:11:14.478Z,72.37
2022-10-18T02:14:17.283Z,72.91
2022-10-18T02:16:55.552Z,73.20
2022-10-18T02:19:33.258Z,73.59
2022-10-18T02:22:15.503Z,73.23
2022-10-18T02:24:47.661Z,72.75
2022-10-18T02:27:14.857Z,73.34
2022-10-18T02:29:43.006Z,72.55
2022-10-18T02:32:12.381Z,72.75
2022-10-18T02:34:44.303Z,73.34
2022-10-18T02:37:12.986Z,73.52
2022-10-18T02:39:51.465Z,73.51
2022-10-18T02:42:18.331Z,73.15
2022-10-18T02:44:45.060Z,73.28
2022-10-18T02:47:12.827Z,73.23
2022-10-18T02:49:42.125Z,73.56
2022-10-18T02:52:11.315Z,73.68
2022-10-18T02:54:38.064Z,74.06
2022-10-18T02:57:09.635Z,74.32
2022-10-18T02:59:36.358Z,74.97
2022-10-18T03:02:03.258Z,74.90
2022-10-18T03:04:37.451Z,74.71
2022-10-18T03:07:09.786Z,74.99
2022-10-18T03:09:42.665Z,74.98
2022-10-18T03:12:09.420Z,75.15
2022-10-18T03:14:38.852Z,75.20
2022-10-18T03:17:07.327Z,74.69
2022-10-18T03:19:40.653Z,74.96
2022-10-18T03:22:11.789Z,75.14
2022-10-18T03:24:39.805Z,75.42
2022-10-18T03:27:11.052Z,75.41
2022-10-18T03:29:37.903Z,75.02
2022-10-18T03:32:04.677Z,74.27
2022-10-18T03:34:40.271Z,74.23
2022-10-18T03:37:12.358Z,74.93
2022-10-18T03:39:39.071Z,75.35
2022-10-18T03:42:05.877Z,75.21
2022-10-18T03:44:35.689Z,75.39
2022-10-18T03:47:24.610Z,75.38
2022-10-18T03:49:57.231Z,75.85
2022-10-18T03:52:27.322Z,75.88
2022-10-18T03:54:56.090Z,75.67
2022-10-18T03:57:22.762Z,75.60
2022-10-18T03:59:49.370Z,75.59
2022-10-18T04:02:25.568Z,75.56
2022-10-18T04:04:52.660Z,75.65
2022-10-18T04:07:19.455Z,75.95
2022-10-18T04:09:48.938Z,76.04
2022-10-18T04:12:15.581Z,76.14
2022-10-18T04:14:42.233Z,76.26
2022-10-18T04:17:08.942Z,75.81
2022-10-18T04:19:35.592Z,75.94
2022-10-18T04:22:02.254Z,75.75
2022-10-18T04:24:28.850Z,75.87
2022-10-18T04:26:55.552Z,76.19
2022-10-18T04:29:22.408Z,76.12
2022-10-18T04:31:50.564Z,76.52
2022-10-18T04:34:21.884Z,76.37
2022-10-18T04:36:48.561Z,75.62
2022-10-18T04:39:15.307Z,76.08
2022-10-18T04:41:46.950Z,76.22
2022-10-18T04:44:14.719Z,76.25
2022-10-18T04:46:41.323Z,76.82
2022-10-18T04:49:07.946Z,76.39
2022-10-18T04:51:34.634Z,76.50
2022-10-18T04:54:01.327Z,76.64
2022-10-18T04:56:29.213Z,75.89
2022-10-18T04:58:56.279Z,76.15
2022-10-18T05:01:22.957Z,76.62
2022-10-18T05:03:55.033Z,76.58
2022-10-18T05:06:22.504Z,76.69
2022-10-18T05:08:49.689Z,76.83
2022-10-18T05:11:16.435Z,76.66
2022-10-18T05:13:45.948Z,76.54
2022-10-18T05:16:14.393Z,76.52
2022-10-18T05:18:41.133Z,76.23
2022-10-18T05:21:07.768Z,76.67
2022-10-18T05:23:34.619Z,76.60
2022-10-18T05:26:03.413Z,76.72
2022-10-18T05:28:39.606Z,76.49
2022-10-18T05:31:13.770Z,76.62
2022-10-18T05:33:47.144Z,76.76
2022-10-18T05:36:24.847Z,76.43
2022-10-18T05:38:52.970Z,76.04
2022-10-18T05:41:19.875Z,76.43
2022-10-18T05:43:46.494Z,75.76
2022-10-18T05:46:15.358Z,76.10
2022-10-18T05:48:44.186Z,74.04
2022-10-18T05:51:18.809Z,71.87
2022-10-18T05:53:46.653Z,72.91
2022-10-18T05:56:14.786Z,74.22
2022-10-18T05:58:42.714Z,74.93
2022-10-18T06:01:10.746Z,75.13
2022-10-18T06:03:38.669Z,75.29
2022-10-18T06:06:13.196Z,74.60
2022-10-18T06:08:44.276Z,74.47
2022-10-18T06:11:19.373Z,74.84
2022-10-18T06:13:48.218Z,74.85
2022-10-18T06:16:17.476Z,74.49
2022-10-18T06:18:48.355Z,74.62
2022-10-18T06:21:15.393Z,74.04
2022-10-18T06:23:42.208Z,73.67
2022-10-18T06:26:16.487Z,73.61
2022-10-18T06:28:52.728Z,73.51
2022-10-18T06:31:22.485Z,73.83
2022-10-18T06:33:54.079Z,72.85
2022-10-18T06:36:23.698Z,73.37
2022-10-18T06:38:52.534Z,73.27
2022-10-18T06:41:19.719Z,73.10
2022-10-18T06:43:54.434Z,74.14
2022-10-18T06:46:21.236Z,74.34
2022-10-18T06:48:50.901Z,74.30
2022-10-18T06:51:18.452Z,74.25
2022-10-18T06:53:59.017Z,73.71
2022-10-18T06:56:38.632Z,73.42
2022-10-18T06:59:05.513Z,71.36
2022-10-18T07:01:37.761Z,69.79
2022-10-18T07:04:05.543Z,69.57
2022-10-18T07:06:33.227Z,69.75
2022-10-18T07:09:00.356Z,69.10
2022-10-18T07:11:30.732Z,69.17
2022-10-18T07:14:06.953Z,68.95
2022-10-18T07:16:37.438Z,70.66
2022-10-18T07:19:04.141Z,71.28
2022-10-18T07:21:35.228Z,71.49
2022-10-18T07:24:03.356Z,69.96
2022-10-18T07:26:35.017Z,68.96
2022-10-18T07:29:20.564Z,69.05
2022-10-18T07:31:47.381Z,69.79
2022-10-18T07:34:15.006Z,69.71
2022-10-18T07:36:44.827Z,69.79
2022-10-18T07:39:17.322Z,69.60
2022-10-18T07:41:49.185Z,68.18
2022-10-18T07:44:16.124Z,66.31
2022-10-18T07:46:46.958Z,66.76
2022-10-18T07:49:20.691Z,65.91
2022-10-18T07:51:47.355Z,65.99
2022-10-18T07:54:28.956Z,65.87
2022-10-18T07:56:56.772Z,65.61
2022-10-18T07:59:23.956Z,65.13
2022-10-18T08:01:51.171Z,64.77
2022-10-18T08:04:21.488Z,64.41
2022-10-18T08:06:49.914Z,63.90
2022-10-18T08:09:16.692Z,63.80
2022-10-18T08:11:43.534Z,64.29
2022-10-18T08:14:14.440Z,64.11
2022-10-18T08:16:41.464Z,63.87
2022-10-18T08:19:08.187Z,64.25
2022-10-18T08:21:37.994Z,64.02
2022-10-18T08:24:05.156Z,64.43
2022-10-18T08:26:38.069Z,64.64
2022-10-18T08:29:21.234Z,64.40
2022-10-18T08:31:51.048Z,63.70
2022-10-18T08:34:19.824Z,63.41
2022-10-18T08:36:47.098Z,63.34
2022-10-18T08:39:13.846Z,62.76
2022-10-18T08:42:12.504Z,62.45
2022-10-18T08:44:58.302Z,62.81
2022-10-18T08:47:46.758Z,62.14
2022-10-18T08:50:27.351Z,61.88
2022-10-18T08:53:02.993Z,61.78
2022-10-18T08:55:37.825Z,61.50
2022-10-18T08:58:21.646Z,61.38
2022-10-18T09:01:13.073Z,61.37
2022-10-18T09:03:52.063Z,61.21
2022-10-18T09:06:43.830Z,60.91
2022-10-18T09:09:37.172Z,61.60
2022-10-18T09:12:39.176Z,60.67
2022-10-18T09:15:33.479Z,60.71
2022-10-18T09:18:19.127Z,60.44
2022-10-18T09:20:51.980Z,60.85
2022-10-18T09:23:27.985Z,60.36
2022-10-18T09:26:23.249Z,60.03
2022-10-18T09:29:02.353Z,59.98
2022-10-18T09:31:38.127Z,59.25
2022-10-18T09:34:34.227Z,59.19
2022-10-18T09:37:01.365Z,59.28
2022-10-18T09:39:38.797Z,59.05
2022-10-18T09:42:27.023Z,59.15
2022-10-18T09:45:38.187Z,58.75
2022-10-18T09:48:34.542Z,58.54
2022-10-18T09:51:09.555Z,58.16
2022-10-18T09:54:04.857Z,57.67
2022-10-18T09:57:00.388Z,57.32
2022-10-18T09:59:56.140Z,56.88
2022-10-18T10:02:28.061Z,57.55
2022-10-18T10:04:56.919Z,57.85
2022-10-18T10:07:41.851Z,57.50
2022-10-18T10:10:22.330Z,57.12
2022-10-18T10:13:04.590Z,56.05
2022-10-18T10:15:38.086Z,55.81
2022-10-18T10:18:15.684Z,55.93
2022-10-18T10:20:45.840Z,55.73
2022-10-18T10:23:28.222Z,56.28
2022-10-18T10:25:56.536Z,55.44
2022-10-18T10:28:28.541Z,55.42
2022-10-18T10:30:55.249Z,55.23
2022-10-18T10:33:42.017Z,55.15
2022-10-18T10:36:21.419Z,54.29
2022-10-18T10:39:04.437Z,54.43
2022-10-18T10:41:38.220Z,54.85
2022-10-18T10:44:15.507Z,54.39
2022-10-18T10:46:43.330Z,55.06
2022-10-18T10:49:39.681Z,55.63
2022-10-18T10:52:36.618Z,54.56
2022-10-18T10:55:30.489Z,54.92
2022-10-18T10:57:54.165Z,55.22
2022-10-18T11:00:38.584Z,55.39
2022-10-18T11:03:28.476Z,54.82
2022-10-18T11:05:57.905Z,54.87
2022-10-18T11:08:30.939Z,54.98
2022-10-18T11:11:22.888Z,55.45
2022-10-18T11:14:07.283Z,55.67
2022-10-18T11:16:53.883Z,55.31
2022-10-18T11:19:34.305Z,54.90
2022-10-18T11:22:05.238Z,54.73
2022-10-18T11:24:31.907Z,54.56
2022-10-18T11:27:13.675Z,54.67
2022-10-18T11:29:55.664Z,55.19
2022-10-18T11:32:34.239Z,55.93
2022-10-18T11:35:27.503Z,54.50
2022-10-18T11:38:20.251Z,55.08
2022-10-18T11:41:05.035Z,55.21
2022-10-18T11:44:01.743Z,55.03
2022-10-18T11:46:54.075Z,55.22
2022-10-18T11:49:56.685Z,55.40
2022-10-18T11:52:57.796Z,56.36
2022-10-18T11:55:33.056Z,57.06
2022-10-18T11:58:35.222Z,56.59
2022-10-18T12:01:15.019Z,57.35
2022-10-18T12:04:09.160Z,56.26
2022-10-18T12:06:43.287Z,56.20
2022-10-18T12:09:39.532Z,55.67
2022-10-18T12:12:52.138Z,55.87
2022-10-18T12:15:30.503Z,55.08
2022-10-18T12:18:23.505Z,54.95
2022-10-18T12:20:54.996Z,54.74
2022-10-18T12:23:49.082Z,54.93
2022-10-18T12:26:17.144Z,55.19
2022-10-18T12:28:43.827Z,55.64
2022-10-18T12:31:50.236Z,55.68
2022-10-18T12:34:30.159Z,54.98
2022-10-18T12:37:40.437Z,53.50
2022-10-18T12:40:28.147Z,54.06
2022-10-18T12:43:01.143Z,54.33
2022-10-18T12:48:07.126Z,55.71
2022-10-18T12:50:37.771Z,55.11
2022-10-18T12:53:10.441Z,55.59
2022-10-18T12:58:34.831Z,56.07
2022-10-18T13:01:07.503Z,54.44
2022-10-18T13:03:57.106Z,54.49
2022-10-18T13:06:54.742Z,54.19
2022-10-18T13:09:23.584Z,55.20
2022-10-18T13:11:51.572Z,55.80
2022-10-18T13:14:34.921Z,54.68
2022-10-18T13:17:04.690Z,55.17
2022-10-18T13:20:23.993Z,55.06
2022-10-18T13:23:02.901Z,55.63
2022-10-18T13:25:57.656Z,56.17
2022-10-18T13:28:24.504Z,56.24
2022-10-18T13:31:30.055Z,56.22
2022-10-18T13:34:28.231Z,56.65
2022-10-18T13:37:32.756Z,57.54
2022-10-18T13:40:28.781Z,55.88
2022-10-18T13:43:20.495Z,55.63
2022-10-18T13:45:56.645Z,56.33
2022-10-18T13:48:34.683Z,56.41
2022-10-18T13:51:41.087Z,56.70
2022-10-18T13:54:40.552Z,56.63
2022-10-18T13:57:45.559Z,56.59
2022-10-18T14:00:34.303Z,56.26
2022-10-18T14:03:57.908Z,55.62
2022-10-18T14:06:29.447Z,55.39
2022-10-18T14:08:56.470Z,54.39
2022-10-18T14:11:36.196Z,55.55
2022-10-18T14:14:35.124Z,55.72
2022-10-18T14:17:15.356Z,55.89
2022-10-18T14:19:52.483Z,56.36
2022-10-18T14:22:32.780Z,55.90
2022-10-18T14:25:01.099Z,53.79
2022-10-18T14:27:36.598Z,54.56
2022-10-18T14:30:25.701Z,55.04
2022-10-18T14:33:03.113Z,55.46
2022-10-18T14:35:38.570Z,53.80
2022-10-18T14:38:06.570Z,53.50
2022-10-18T14:40:39.123Z,54.41
2022-10-18T14:43:22.335Z,55.31
2022-10-18T14:45:49.225Z,55.10
2022-10-18T14:48:22.967Z,54.04
2022-10-18T14:51:00.732Z,52.99
2022-10-18T14:53:42.336Z,53.86
2022-10-18T14:56:46.857Z,55.12
2022-10-18T14:59:51.926Z,55.37
2022-10-18T15:02:41.293Z,56.08
2022-10-18T15:05:25.329Z,55.80
2022-10-18T15:08:00.226Z,56.33
2022-10-18T15:10:32.946Z,56.61
2022-10-18T15:13:11.946Z,56.57
2022-10-18T15:15:46.045Z,55.94
2022-10-18T15:18:27.465Z,56.08
2022-10-18T15:21:24.198Z,56.43
2022-10-18T15:23:52.097Z,56.67
2022-10-18T15:26:26.877Z,56.12
2022-10-18T15:28:56.492Z,56.09
2022-10-18T15:31:39.149Z,56.09
2022-10-18T15:34:08.758Z,56.66
2022-10-18T15:36:36.101Z,56.32
2022-10-18T15:39:17.037Z,56.15
2022-10-18T15:42:05.720Z,56.78
2022-10-18T15:44:38.536Z,57.28
2022-10-18T15:47:24.219Z,56.90
2022-10-18T15:49:57.557Z,57.60
2022-10-18T15:52:53.825Z,57.47
2022-10-18T15:55:29.335Z,57.48
2022-10-18T15:58:19.915Z,57.40
2022-10-18T16:00:48.957Z,57.61
2022-10-18T16:03:22.380Z,57.66
2022-10-18T16:05:49.972Z,57.56
2022-10-18T16:08:32.452Z,57.81
2022-10-18T16:11:02.175Z,57.66
2022-10-18T16:13:34.293Z,57.90
2022-10-18T16:16:00.904Z,57.82
2022-10-18T16:18:28.383Z,58.27
2022-10-18T16:21:00.015Z,58.46
2022-10-18T16:23:35.647Z,58.41
2022-10-18T16:26:05.380Z,58.60
2022-10-18T16:28:43.447Z,59.25
2022-10-18T16:31:20.994Z,59.05
2022-10-18T16:33:49.015Z,59.43
2022-10-18T16:36:21.174Z,59.25
2022-10-18T16:39:00.814Z,59.35
2022-10-18T16:41:31.227Z,59.43
2022-10-18T16:43:57.985Z,59.53
2022-10-18T16:46:31.747Z,59.81
2022-10-18T16:48:58.966Z,60.23
2022-10-18T16:51:29.283Z,60.19
2022-10-18T16:53:56.952Z,60.23
2022-10-18T16:56:36.558Z,60.83
2022-10-18T16:59:05.432Z,60.94
2022-10-18T17:01:33.778Z,60.81
2022-10-18T17:04:06.594Z,60.45
2022-10-18T17:06:36.653Z,60.39
2022-10-18T17:09:04.306Z,60.87
2022-10-18T17:11:39.371Z,60.71
2022-10-18T17:14:06.622Z,60.73
2022-10-18T17:16:35.534Z,61.24
2022-10-18T17:19:06.911Z,61.30
2022-10-18T17:21:34.663Z,61.54
2022-10-18T17:24:03.110Z,62.01
2022-10-18T17:26:32.992Z,62.23
2022-10-18T17:29:05.873Z,61.84
2022-10-18T17:31:33.034Z,62.20
2022-10-18T17:34:03.792Z,62.33
2022-10-18T17:36:32.774Z,62.87
2022-10-18T17:38:59.730Z,62.53
2022-10-18T17:41:27.800Z,63.07
2022-10-18T17:43:54.491Z,62.93
2022-10-18T17:46:21.276Z,62.99
2022-10-18T17:48:47.947Z,63.25
2022-10-18T17:51:17.619Z,62.98
2022-10-18T17:53:51.159Z,63.32
2022-10-18T17:56:23.920Z,63.45
2022-10-18T17:58:51.922Z,63.47
2022-10-18T18:01:22.309Z,62.60
2022-10-18T18:03:49.523Z,62.87
2022-10-18T18:06:43.353Z,63.06
2022-10-18T18:09:17.013Z,62.80
2022-10-18T18:11:49.145Z,62.97
2022-10-18T18:14:21.867Z,62.58
2022-10-18T18:16:57.355Z,63.18
2022-10-18T18:19:24.096Z,63.95
2022-10-18T18:21:53.769Z,63.78
2022-10-18T18:24:27.233Z,63.67
2022-10-18T18:26:55.923Z,63.91
2022-10-18T18:29:24.811Z,63.78
2022-10-18T18:31:52.126Z,64.26
2022-10-18T18:34:22.640Z,64.60
2022-10-18T18:36:50.262Z,64.96
2022-10-18T18:39:29.731Z,64.73
2022-10-18T18:41:57.600Z,65.04
2022-10-18T18:44:25.188Z,65.37
2022-10-18T18:46:53.828Z,64.94
2022-10-18T18:49:20.701Z,65.27
2022-10-18T18:51:47.732Z,65.83
2022-10-18T18:54:15.329Z,65.81
2022-10-18T18:56:45.379Z,65.10
2022-10-18T18:59:19.614Z,65.36
2022-10-18T19:01:49.467Z,65.81
2022-10-18T19:04:17.328Z,65.55
2022-10-18T19:06:45.902Z,65.52
2022-10-18T19:09:28.918Z,65.34
2022-10-18T19:12:01.586Z,65.63
2022-10-18T19:14:29.220Z,65.64
2022-10-18T19:17:08.180Z,65.67
2022-10-18T19:19:35.390Z,65.59
2022-10-18T19:22:11.303Z,65.75
2022-10-18T19:24:38.317Z,65.45
2022-10-18T19:27:10.325Z,65.28
2022-10-18T19:29:39.693Z,65.79
2022-10-18T19:32:09.681Z,65.95
2022-10-18T19:34:39.276Z,65.84
2022-10-18T19:37:08.079Z,65.56
2022-10-18T19:39:38.635Z,65.73
2022-10-18T19:42:09.074Z,66.52
2022-10-18T19:44:37.319Z,66.94
2022-10-18T19:47:11.686Z,66.82
2022-10-18T19:49:39.836Z,66.87
2022-10-18T19:52:12.973Z,67.15
2022-10-18T19:54:45.179Z,67.45
2022-10-18T19:57:15.441Z,67.75
2022-10-18T19:59:47.032Z,67.55
2022-10-18T20:02:19.209Z,67.43
2022-10-18T20:04:46.752Z,67.67
2022-10-18T20:07:14.162Z,67.90
2022-10-18T20:09:45.920Z,67.82
2022-10-18T20:12:13.352Z,67.60
2022-10-18T20:14:43.478Z,67.84
2022-10-18T20:17:21.366Z,67.66
2022-10-18T20:19:49.263Z,67.65
2022-10-18T20:22:16.966Z,68.10
2022-10-18T20:24:47.879Z,67.80
2022-10-18T20:27:26.829Z,67.74
2022-10-18T20:29:56.666Z,67.61
2022-10-18T20:32:31.690Z,67.75
2022-10-18T20:35:05.999Z,67.79
2022-10-18T20:37:34.524Z,67.95
2022-10-18T20:40:03.380Z,67.84
2022-10-18T20:42:32.009Z,68.29
2022-10-18T20:47:38.731Z,68.70
2022-10-18T20:50:05.895Z,68.84
2022-10-18T20:52:36.493Z,68.83
2022-10-18T20:55:06.672Z,68.78
2022-10-18T20:57:36.623Z,69.27
2022-10-18T21:00:04.307Z,69.55
2022-10-18T21:02:31.158Z,69.12
2022-10-18T21:05:06.271Z,68.97
2022-10-18T21:07:33.335Z,69.16
2022-10-18T21:10:02.333Z,69.45
2022-10-18T21:12:29.301Z,69.07
2022-10-18T21:14:56.038Z,69.24
2022-10-18T21:17:31.949Z,69.59
2022-10-18T21:19:58.811Z,69.74
2022-10-18T21:22:28.573Z,70.25
2022-10-18T21:24:55.551Z,70.25
2022-10-18T21:27:31.247Z,70.30
2022-10-18T21:30:04.260Z,70.25
2022-10-18T21:32:34.537Z,70.43
2022-10-18T21:35:07.814Z,70.23
2022-10-18T21:37:39.078Z,70.35
2022-10-18T21:40:07.985Z,70.46
2022-10-18T21:42:35.251Z,70.67
2022-10-18T21:45:06.957Z,70.76
2022-10-18T21:47:34.758Z,70.91
2022-10-18T21:50:03.864Z,71.20
2022-10-18T21:52:38.199Z,70.99
2022-10-18T21:55:11.151Z,71.49
2022-10-18T21:57:37.941Z,71.56
2022-10-18T22:00:06.670Z,71.16
2022-10-18T22:02:34.351Z,71.40
2022-10-18T22:05:08.213Z,71.14
2022-10-18T22:07:43.028Z,71.39
2022-10-18T22:10:10.050Z,71.60
2022-10-18T22:12:40.489Z,71.23
2022-10-18T22:15:07.737Z,71.90
2022-10-18T22:17:40.363Z,71.80
2022-10-18T22:20:07.516Z,72.10
2022-10-18T22:22:34.330Z,71.93
2022-10-18T22:25:04.901Z,71.68
2022-10-18T22:27:36.019Z,71.85
2022-10-18T22:30:07.559Z,71.83
2022-10-18T22:32:34.416Z,71.33
2022-10-18T22:35:01.298Z,71.64
2022-10-18T22:37:28.115Z,71.71
2022-10-18T22:39:54.907Z,72.19
2022-10-18T22:42:23.531Z,72.36
2022-10-18T22:44:54.648Z,72.80
2022-10-18T22:47:24.035Z,73.13
2022-10-18T22:49:50.947Z,72.83
2022-10-18T22:52:22.383Z,72.29
2022-10-18T22:54:52.062Z,72.70
2022-10-18T22:57:28.756Z,73.49
2022-10-18T23:00:02.752Z,73.23
2022-10-18T23:02:31.977Z,73.33
2022-10-18T23:04:59.136Z,74.03
2022-10-18T23:07:26.134Z,73.70
2022-10-18T23:09:54.197Z,73.89
2022-10-18T23:12:22.325Z,73.65
2022-10-18T23:14:54.060Z,73.10
2022-10-18T23:17:24.359Z,73.16
2022-10-18T23:19:51.141Z,73.55
2022-10-18T23:22:21.657Z,73.72
2022-10-18T23:24:48.394Z,74.00
2022-10-18T23:27:15.153Z,73.64
2022-10-18T23:29:45.597Z,74.18
2022-10-18T23:32:13.880Z,74.13
2022-10-18T23:34:40.726Z,74.26
2022-10-18T23:37:14.994Z,74.49
2022-10-18T23:39:41.739Z,74.85
2022-10-18T23:42:08.365Z,74.72
2022-10-18T23:44:35.091Z,74.86
2022-10-18T23:47:04.614Z,74.83
2022-10-18T23:49:34.380Z,75.04
2022-10-18T23:52:01.169Z,74.79
2022-10-18T23:54:30.361Z,74.74
2022-10-18T23:56:57.809Z,75.10
2022-10-18T23:59:32.015Z,75.45
